• Join FlightAware (Why Join?)
  • Login
  • US Flag 
03:26PM EST


 

Airport Tracker/Info


-or-


 

Live Flight TrackerFlight Track Log ✈ N560TA ✈ 16-Jun-2013 ✈ KTTN - KFMY

Flight Track Log - Related Links

Times and Time Zones

All times are in EDT time to prevent confusion due to time zone crossing. See the N560TA flight status page for this flight to view local times or setup timezone preferences in your user account.

Time Position Orientation Groundspeed Altitude Reporting Facility
EDT Latitude Longitude Course Direction KTS MPH feet Rate Location/Type
02:50PM 40.2667 -74.8167 237° Southwest 81 93 900  Level Philadelphia TRACON
02:51PM 40.2500 -74.8500 237° Southwest 130 150 1,800 1,320 Climbing Philadelphia TRACON
02:52PM 40.2167 -74.8833 217° Southwest 178 205 3,100 2,160 Climbing Philadelphia TRACON
02:53PM 40.1833 -74.9167 217° Southwest 166 191 6,200 1,980 Climbing Philadelphia TRACON
02:54PM 40.1333 -74.9500 207° Southwest 264 304 7,100 420 Climbing Philadelphia TRACON
02:55PM 40.0667 -75.0000 210° Southwest 273 314 7,100 420 Level Philadelphia TRACON
02:56PM 40.0000 -75.0500 210° Southwest 277 319 8,000 1,500 Climbing Philadelphia TRACON
02:57PM 39.9333 -75.1000 210° Southwest 283 326 10,100 1,020 Climbing Philadelphia TRACON
02:58PM 39.8500 -75.1500 205° Southwest 295 339 10,100 540 Level Philadelphia TRACON
03:00PM 39.6861 -75.2706 210° Southwest 314 361 11,900 960 Climbing Washington Center
03:01PM 39.6008 -75.3142 202° Southwest 323 372 13,400 1,980 Climbing Washington Center
03:02PM 39.5111 -75.3281 187° South 323 372 15,900 1,980 Climbing Washington Center
03:03PM 39.4236 -75.3444 188° South 323 372 17,300 1,440 Climbing Washington Center
03:04PM 39.3319 -75.3608 188° South 328 377 18,900 1,380 Climbing Washington Center
03:05PM 39.2444 -75.3744 187° South 333 383 20,100 1,260 Climbing Washington Center
03:06PM 39.1467 -75.3908 187° South 339 390 21,500 900 Climbing Washington Center
03:07PM 39.0528 -75.4100 189° South 339 390 22,000 1,020 Climbing Washington Center
03:08PM 38.9528 -75.4208 185° South 354 407 23,600 1,380 Climbing Washington Center
03:09PM 38.8589 -75.4344 186° South 353 406 24,800 1,080 Climbing Washington Center
03:10PM 38.7653 -75.4506 188° South 348 400 25,800 900 Climbing Washington Center
03:11PM 38.6714 -75.4614 185° South 348 400 26,700 720 Climbing Washington Center
03:12PM 38.5756 -75.4803 189° South 354 407 27,300 600 Climbing Washington Center
03:13PM 38.4775 -75.4936 186° South 354 407 28,000 300 Climbing Washington Center
03:14PM 38.3733 -75.5069 186° South 361 415 28,000  Level Washington Center
03:15PM 38.2836 -75.5467 199° South 373 429 28,000 540 Level Washington Center
03:16PM 38.1919 -75.6050 207° Southwest 373 429 29,100 1,380 Climbing Washington Center
03:17PM 38.1083 -75.6578 206° Southwest 361 415 30,800 1,620 Climbing Washington Center
03:18PM 38.0189 -75.7208 209° Southwest 345 397 32,400 1,380 Climbing Washington Center
03:19PM 37.9353 -75.7708 205° Southwest 332 382 33,600 1,140 Climbing Washington Center
03:20PM 37.8539 -75.8233 207° Southwest 326 375 34,800 1,140 Climbing Washington Center
03:21PM 37.7744 -75.8625 201° Southwest 326 375 35,900 600 Climbing Washington Center
03:22PM 37.6847 -75.9250 209° Southwest 331 381 36,000 480 Climbing Washington Center
03:23PM 37.5928 -75.9822 206° Southwest 352 405 36,900 960 Climbing Washington Center
03:24PM 37.5050 -76.0369 206° Southwest 352 405 38,000 540 Climbing Washington Center
03:25PM 37.4131 -76.0914 205° Southwest 357 411 38,000  Level Washington Center
03:26PM 37.3189 -76.1508 207° Southwest 372 428 38,000  Level Washington Center
03:27PM 37.2122 -76.2072 203° Southwest 394 453 38,000  Level Washington Center
03:28PM 37.1097 -76.2689 206° Southwest 405 466 38,000  Level Washington Center
03:29PM 37.0069 -76.3306 206° Southwest 405 466 38,000  Level Washington Center
03:30PM 36.9067 -76.3919 206° Southwest 405 466 38,000  Level Washington Center
03:31PM 36.8039 -76.4531 205° Southwest 405 466 38,000 60 Level Washington Center
03:32PM 36.7222 -76.5042 207° Southwest 405 466 38,200 600 Climbing Washington Center
03:33PM 36.6131 -76.5728 207° Southwest 405 466 39,200 840 Climbing Washington Center
03:34PM 36.5189 -76.6283 205° Southwest 394 453 40,000 360 Climbing Washington Center
03:35PM 36.4222 -76.6839 205° Southwest 387 445 40,000  Level Washington Center
03:36PM 36.3217 -76.7417 205° Southwest 387 445 40,000  Level Washington Center
03:37PM 36.2208 -76.8022 206° Southwest 392 451 40,000  Level Washington Center
03:38PM 36.1222 -76.8597 205° Southwest 392 451 40,000  Level Washington Center
03:39PM 36.0153 -76.9197 204° Southwest 405 466 40,000  Level Washington Center
03:40PM 35.9122 -76.9794 205° Southwest 410 472 40,000  Level Washington Center
03:41PM 35.8094 -77.0392 205° Southwest 405 466 40,000  Level Washington Center
03:42PM 35.7083 -77.0986 206° Southwest 405 466 40,000  Level Washington Center
03:43PM 35.6011 -77.1631 206° Southwest 399 459 40,000  Level Washington Center
03:44PM 35.4961 -77.2222 205° Southwest 404 465 40,000  Level Washington Center
03:45PM 35.3931 -77.2814 205° Southwest 404 465 40,000  Level Washington Center
03:46PM 35.2878 -77.3403 205° Southwest 404 465 40,000  Level Washington Center
03:47PM 35.1867 -77.4014 206° Southwest 404 465 40,000  Level Washington Center
03:48PM 35.1025 -77.4478 204° Southwest 404 465 40,000  Level Washington Center
03:49PM 34.9889 -77.5111 205° Southwest 404 465 40,000  Level Washington Center
03:50PM 34.8836 -77.5744 206° Southwest 404 465 40,000  Level Washington Center
03:51PM 34.7697 -77.6425 206° Southwest 404 465 40,000  Level Washington Center
03:52PM 34.6664 -77.7006 205° Southwest 410 472 40,000  Level Washington Center
03:53PM 34.5611 -77.7583 204° Southwest 410 472 40,000  Level Washington Center
03:54PM 34.4600 -77.8186 206° Southwest 410 472 40,000  Level Washington Center
03:55PM 34.3544 -77.8761 204° Southwest 410 472 40,000  Level Washington Center
03:57PM 34.1314 -77.9381 193° South 434 499 40,000  Level Jacksonville Center
03:58PM 34.0178 -77.9694 193° South 439 505 40,000  Level Jacksonville Center
03:59PM 33.9025 -78.0061 195° South 433 498 40,000  Level Jacksonville Center
04:00PM 33.7889 -78.0375 193° South 426 490 40,000  Level Jacksonville Center
04:01PM 33.6753 -78.0686 193° South 426 490 40,000  Level Jacksonville Center
04:02PM 33.5600 -78.1047 195° South 431 496 40,000  Level Jacksonville Center
04:03PM 33.4464 -78.1358 193° South 426 490 40,000  Level Jacksonville Center
04:04PM 33.3347 -78.1667 193° South 426 490 40,000  Level Jacksonville Center
04:05PM 33.2192 -78.2000 194° South 426 490 40,000  Level Jacksonville Center
04:06PM 33.1056 -78.2333 194° South 426 490 40,000  Level Jacksonville Center
04:07PM 32.9897 -78.2642 193° South 426 490 40,000  Level Jacksonville Center
04:08PM 32.8761 -78.2947 193° South 426 490 40,000  Level Jacksonville Center
04:09PM 32.7606 -78.3303 195° South 426 490 40,000  Level Jacksonville Center
04:10PM 32.6469 -78.3581 192° South 431 496 40,000  Level Jacksonville Center
04:11PM 32.5311 -78.3933 194° South 431 496 40,000  Level Jacksonville Center
04:12PM 32.4175 -78.4261 194° South 431 496 40,000  Level Jacksonville Center
04:13PM 32.2936 -78.4642 195° South 425 489 40,000  Level Jacksonville Center
04:14PM 32.1822 -78.4967 194° South 420 483 40,000  Level Jacksonville Center
04:15PM 32.0706 -78.5289 194° South 420 483 40,000  Level Jacksonville Center
04:16PM 31.9547 -78.5614 193° South 420 483 40,000  Level Jacksonville Center
04:17PM 31.8408 -78.5911 193° South 425 489 40,000  Level Jacksonville Center
04:18PM 31.7275 -78.6281 195° South 425 489 40,000  Level Jacksonville Center
04:19PM 31.6156 -78.6578 193° South 428 493 40,000  Level Jacksonville Center
04:20PM 31.5000 -78.6947 195° South 417 480 40,000  Level Jacksonville Center
04:21PM 31.3861 -78.7264 193° South 427 491 40,000  Level Jacksonville Center
04:22PM 31.2847 -78.7553 194° South 427 491 40,000  Level Jacksonville Center
04:23PM 31.1711 -78.7847 193° South 427 491 40,000  Level Jacksonville Center
04:24PM 31.0553 -78.8236 196° South 432 497 40,000  Level Jacksonville Center
04:25PM 30.9414 -78.8478 190° South 432 497 40,000  Level Jacksonville Center
04:26PM 30.8317 -78.8792 194° South 426 490 40,000  Level Jacksonville Center
04:27PM 30.7158 -78.9131 194° South 420 483 40,000  Level Jacksonville Center
04:28PM 30.6061 -78.9467 195° South 421 484 40,000  Level Jacksonville Center
04:29PM 30.5106 -78.9714 193° South 422 486 40,000  Level Miami Center
04:30PM 30.3933 -79.0053 194° South 408 470 40,000  Level Miami Center
04:31PM 30.2925 -79.0536 202° Southwest 413 475 40,000  Level Miami Center
04:32PM 30.1753 -79.1017 200° South 419 482 40,000  Level Miami Center
04:33PM 30.0722 -79.1472 201° Southwest 419 482 40,000  Level Miami Center
04:34PM 29.9672 -79.1978 203° Southwest 413 475 40,000  Level Miami Center
04:35PM 29.8558 -79.2433 200° South 413 475 40,000  Level Miami Center
04:36PM 29.7528 -79.2983 205° Southwest 414 476 40,000  Level Miami Center
04:37PM 29.6394 -79.3386 197° South 414 476 40,000  Level Miami Center
04:38PM 29.5303 -79.3864 201° Southwest 414 476 40,000  Level Miami Center
04:39PM 29.4211 -79.4314 200° South 414 476 40,000  Level Miami Center
04:40PM 29.3139 -79.4789 201° Southwest 414 476 40,000  Level Miami Center
04:41PM 29.2086 -79.5264 201° Southwest 414 476 40,000 -180 Level Miami Center
04:42PM 29.0972 -79.5711 199° South 414 476 39,700 -1,200 Descending Miami Center
04:43PM 28.9961 -79.6208 203° Southwest 414 476 37,700 -2,040 Descending Miami Center
04:44PM 28.8931 -79.6656 201° Southwest 409 471 35,700 -1,980 Descending Miami Center
04:45PM 28.8078 -79.7489 221° Southwest 390 449 33,800 -1,920 Descending Miami Center
04:46PM 28.7433 -79.8489 234° Southwest 390 449 31,900 -1,980 Descending Miami Center
04:47PM 28.6783 -79.9511 234° Southwest 396 456 29,900 -2,040 Descending Miami Center
04:48PM 28.6239 -80.0586 240° Southwest 395 455 27,900 -2,040 Descending Miami Center
04:49PM 28.5650 -80.1703 239° Southwest 408 470 25,900 -1,920 Descending Miami Center
04:50PM 28.5125 -80.2728 240° Southwest 413 475 24,100 -1,200 Descending Miami Center
04:51PM 28.4642 -80.3797 243° Southwest 407 468 23,600 -960 Descending Miami Center
04:52PM 28.4150 -80.5033 246° West 395 455 22,200 -1,260 Descending Miami Center
04:53PM 28.3708 -80.5964 242° Southwest 395 455 21,100 -1,140 Descending Miami Center
04:54PM 28.3325 -80.7106 249° West 395 455 20,000 -600 Descending Miami Center
04:55PM 28.2900 -80.8153 245° Southwest 390 449 20,000  Level Miami Center
04:56PM 28.2453 -80.9219 245° Southwest 380 437 20,000  Level Miami Center
04:57PM 28.2047 -81.0242 246° West 374 430 20,000  Level Miami Center
04:58PM 28.1619 -81.1286 245° Southwest 369 425 20,000  Level Miami Center
04:59PM 28.1047 -81.2300 237° Southwest 354 407 20,000  Level Miami Center
05:00PM 28.0078 -81.2614 196° South 337 388 20,000  Level Miami Center
05:01PM 27.9175 -81.2792 190° South 351 404 20,000  Level Miami Center
05:02PM 27.8189 -81.3011 191° South 361 415 20,000  Level Miami Center
05:03PM 27.7200 -81.3231 191° South 361 415 20,000 -300 Level Miami Center
05:04PM 27.6211 -81.3472 192° South 361 415 19,500 -1,140 Descending Miami Center
05:05PM 27.5139 -81.3689 190° South 361 415 17,800 -1,560 Descending Miami Center
05:06PM 27.4153 -81.3931 192° South 361 415 16,400 -1,500 Descending Miami Center
05:07PM 27.3164 -81.4147 191° South 356 410 14,800 -1,620 Descending Miami Center
05:08PM 27.2239 -81.4344 191° South 356 410 13,200 -1,560 Descending Miami Center
05:09PM 27.1333 -81.4567 192° South 351 404 11,700 -1,560 Descending Miami Center
05:10PM 27.0408 -81.4786 192° South 346 398 10,100 -900 Descending Miami Center
05:11PM 26.9725 -81.4619 168° South 316 364 10,000 -720 Descending Miami Center
05:12PM 26.9028 -81.4267 156° South 260 299 8,700 -1,380 Descending Miami Center
05:13PM 26.8431 -81.3986 157° South 241 277 7,300 -1,620 Descending Miami Center
05:14PM 26.7964 -81.4200 202° Southwest 191 220 5,500 -1,680 Descending Miami Center
05:15PM 26.7903 -81.4850 264° West 177 204 4,000 -900 Descending Miami Center
05:16PM 26.7692 -81.5517 250° West 211 243 3,800 -240 Descending Miami Center
05:18PM 26.6808 -81.7027 237° Southwest  Level Estimated
05:25PM 26.5866 -81.8633 237° Southwest  Level Estimated
05:26PM 26.5866 -81.8633 North  Level Estimated
05:27PM 26.5866 -81.8633 North  Level Estimated
05:28PM 26.5866 -81.8633 North  Level Estimated
05:29PM 26.5866 -81.8633 North  Level Estimated
05:30PM 26.5866 -81.8633 North  Level Estimated
05:31PM 26.5866 -81.8633 North  Level Estimated
05:32PM 26.5866 -81.8633 North  Level Estimated